sensor_id;sensor_type;location;lat;lon;timestamp;P1;durP1;ratioP1;P2;durP2;ratioP2
19593;SDS011;9944;48.240;16.478;2024-03-23T00:54:19;7.30;;;4.63;;
19593;SDS011;9944;48.240;16.478;2024-03-23T00:58:42;7.88;;;4.85;;
19593;SDS011;9944;48.240;16.478;2024-03-23T01:03:05;7.38;;;5.25;;
19593;SDS011;9944;48.240;16.478;2024-03-23T01:07:28;8.50;;;5.43;;
19593;SDS011;9944;48.240;16.478;2024-03-23T01:11:52;7.88;;;5.20;;
19593;SDS011;9944;48.240;16.478;2024-03-23T01:16:15;8.52;;;5.45;;
19593;SDS011;9944;48.240;16.478;2024-03-23T01:20:37;8.30;;;5.32;;
19593;SDS011;9944;48.240;16.478;2024-03-23T01:25:01;8.60;;;5.38;;
19593;SDS011;9944;48.240;16.478;2024-03-23T01:29:25;8.13;;;5.05;;
19593;SDS011;9944;48.240;16.478;2024-03-23T01:33:47;8.88;;;5.20;;
19593;SDS011;9944;48.240;16.478;2024-03-23T01:38:10;7.82;;;5.00;;
19593;SDS011;9944;48.240;16.478;2024-03-23T01:42:33;5.85;;;4.25;;
19593;SDS011;9944;48.240;16.478;2024-03-23T01:46:57;8.13;;;4.82;;
19593;SDS011;9944;48.240;16.478;2024-03-23T01:51:20;7.75;;;5.22;;
19593;SDS011;9944;48.240;16.478;2024-03-23T01:55:43;7.07;;;4.53;;
19593;SDS011;9944;48.240;16.478;2024-03-23T02:00:06;10.05;;;5.00;;
19593;SDS011;9944;48.240;16.478;2024-03-23T02:04:35;5.93;;;4.72;;
19593;SDS011;9944;48.240;16.478;2024-03-23T02:08:58;6.55;;;4.75;;
19593;SDS011;9944;48.240;16.478;2024-03-23T02:13:22;7.22;;;5.18;;
19593;SDS011;9944;48.240;16.478;2024-03-23T02:17:44;10.63;;;5.88;;
19593;SDS011;9944;48.240;16.478;2024-03-23T02:22:08;8.48;;;5.63;;
19593;SDS011;9944;48.240;16.478;2024-03-23T02:26:34;11.60;;;5.80;;
19593;SDS011;9944;48.240;16.478;2024-03-23T02:30:56;8.30;;;5.05;;
19593;SDS011;9944;48.240;16.478;2024-03-23T02:35:19;10.38;;;5.32;;
19593;SDS011;9944;48.240;16.478;2024-03-23T02:39:42;6.93;;;5.13;;
19593;SDS011;9944;48.240;16.478;2024-03-23T02:44:06;7.30;;;5.32;;
19593;SDS011;9944;48.240;16.478;2024-03-23T02:48:32;7.93;;;5.10;;
19593;SDS011;9944;48.240;16.478;2024-03-23T02:52:55;7.75;;;5.78;;
19593;SDS011;9944;48.240;16.478;2024-03-23T02:57:18;8.73;;;5.20;;
19593;SDS011;9944;48.240;16.478;2024-03-23T03:01:42;7.13;;;4.78;;
19593;SDS011;9944;48.240;16.478;2024-03-23T03:06:06;8.95;;;5.78;;
19593;SDS011;9944;48.240;16.478;2024-03-23T03:10:28;8.60;;;5.47;;
19593;SDS011;9944;48.240;16.478;2024-03-23T03:14:51;10.18;;;6.78;;
19593;SDS011;9944;48.240;16.478;2024-03-23T03:19:16;9.88;;;5.78;;
19593;SDS011;9944;48.240;16.478;2024-03-23T03:23:38;8.88;;;5.60;;
19593;SDS011;9944;48.240;16.478;2024-03-23T03:28:02;10.10;;;5.70;;
19593;SDS011;9944;48.240;16.478;2024-03-23T03:32:26;10.50;;;5.80;;
19593;SDS011;9944;48.240;16.478;2024-03-23T03:36:50;8.57;;;5.85;;
19593;SDS011;9944;48.240;16.478;2024-03-23T03:41:13;8.15;;;5.22;;
19593;SDS011;9944;48.240;16.478;2024-03-23T03:45:36;8.18;;;5.97;;
19593;SDS011;9944;48.240;16.478;2024-03-23T03:49:59;10.63;;;5.88;;
19593;SDS011;9944;48.240;16.478;2024-03-23T03:54:23;7.80;;;5.75;;
19593;SDS011;9944;48.240;16.478;2024-03-23T03:58:46;8.10;;;5.60;;
19593;SDS011;9944;48.240;16.478;2024-03-23T04:03:09;9.65;;;5.75;;
19593;SDS011;9944;48.240;16.478;2024-03-23T04:07:32;9.05;;;5.75;;
19593;SDS011;9944;48.240;16.478;2024-03-23T04:11:56;7.78;;;5.75;;
19593;SDS011;9944;48.240;16.478;2024-03-23T04:16:24;8.38;;;5.72;;
19593;SDS011;9944;48.240;16.478;2024-03-23T04:20:48;6.65;;;5.20;;
19593;SDS011;9944;48.240;16.478;2024-03-23T04:25:11;9.20;;;5.72;;
19593;SDS011;9944;48.240;16.478;2024-03-23T04:29:36;7.82;;;5.90;;
19593;SDS011;9944;48.240;16.478;2024-03-23T04:33:58;11.15;;;6.65;;
19593;SDS011;9944;48.240;16.478;2024-03-23T04:38:21;9.23;;;6.53;;
19593;SDS011;9944;48.240;16.478;2024-03-23T04:42:44;10.40;;;5.53;;
19593;SDS011;9944;48.240;16.478;2024-03-23T04:47:08;9.02;;;6.00;;
19593;SDS011;9944;48.240;16.478;2024-03-23T04:51:35;8.23;;;6.00;;
19593;SDS011;9944;48.240;16.478;2024-03-23T04:55:58;7.65;;;5.70;;
19593;SDS011;9944;48.240;16.478;2024-03-23T05:00:21;9.63;;;6.05;;
19593;SDS011;9944;48.240;16.478;2024-03-23T05:04:46;9.73;;;6.00;;
19593;SDS011;9944;48.240;16.478;2024-03-23T05:09:09;10.63;;;6.55;;
19593;SDS011;9944;48.240;16.478;2024-03-23T05:13:32;10.00;;;6.47;;
19593;SDS011;9944;48.240;16.478;2024-03-23T05:17:55;10.18;;;7.05;;
19593;SDS011;9944;48.240;16.478;2024-03-23T05:22:19;9.50;;;6.00;;
19593;SDS011;9944;48.240;16.478;2024-03-23T05:26:42;8.45;;;5.57;;
19593;SDS011;9944;48.240;16.478;2024-03-23T05:31:04;10.40;;;6.60;;
19593;SDS011;9944;48.240;16.478;2024-03-23T05:35:29;9.25;;;6.25;;
19593;SDS011;9944;48.240;16.478;2024-03-23T05:39:53;8.65;;;6.00;;
19593;SDS011;9944;48.240;16.478;2024-03-23T05:44:16;7.78;;;5.75;;
19593;SDS011;9944;48.240;16.478;2024-03-23T05:48:39;8.65;;;5.85;;
19593;SDS011;9944;48.240;16.478;2024-03-23T05:53:02;9.45;;;5.82;;
19593;SDS011;9944;48.240;16.478;2024-03-23T05:57:27;7.97;;;5.30;;
19593;SDS011;9944;48.240;16.478;2024-03-23T06:01:50;10.07;;;5.68;;
19593;SDS011;9944;48.240;16.478;2024-03-23T06:06:13;9.50;;;6.13;;
19593;SDS011;9944;48.240;16.478;2024-03-23T06:10:36;8.70;;;5.35;;
19593;SDS011;9944;48.240;16.478;2024-03-23T06:15:00;8.10;;;5.72;;
19593;SDS011;9944;48.240;16.478;2024-03-23T06:19:22;10.95;;;5.50;;
19593;SDS011;9944;48.240;16.478;2024-03-23T06:23:48;9.40;;;5.10;;
19593;SDS011;9944;48.240;16.478;2024-03-23T06:28:14;7.30;;;4.88;;
19593;SDS011;9944;48.240;16.478;2024-03-23T06:32:38;8.45;;;5.10;;
19593;SDS011;9944;48.240;16.478;2024-03-23T06:37:01;8.27;;;4.93;;
19593;SDS011;9944;48.240;16.478;2024-03-23T06:41:24;7.15;;;4.95;;
19593;SDS011;9944;48.240;16.478;2024-03-23T06:45:52;7.60;;;5.03;;
19593;SDS011;9944;48.240;16.478;2024-03-23T06:50:16;8.48;;;4.60;;
19593;SDS011;9944;48.240;16.478;2024-03-23T06:54:39;6.45;;;4.72;;
19593;SDS011;9944;48.240;16.478;2024-03-23T06:59:02;7.63;;;5.00;;
19593;SDS011;9944;48.240;16.478;2024-03-23T07:03:25;7.57;;;5.30;;
19593;SDS011;9944;48.240;16.478;2024-03-23T07:07:49;9.00;;;5.10;;
19593;SDS011;9944;48.240;16.478;2024-03-23T07:12:12;6.95;;;4.50;;
19593;SDS011;9944;48.240;16.478;2024-03-23T07:16:34;6.30;;;4.45;;
19593;SDS011;9944;48.240;16.478;2024-03-23T07:20:56;6.75;;;4.50;;
19593;SDS011;9944;48.240;16.478;2024-03-23T07:25:21;6.43;;;4.28;;
19593;SDS011;9944;48.240;16.478;2024-03-23T07:29:46;7.55;;;4.90;;
19593;SDS011;9944;48.240;16.478;2024-03-23T07:34:09;6.78;;;4.90;;
19593;SDS011;9944;48.240;16.478;2024-03-23T07:38:32;8.20;;;4.38;;
19593;SDS011;9944;48.240;16.478;2024-03-23T07:42:56;6.30;;;4.82;;
19593;SDS011;9944;48.240;16.478;2024-03-23T07:47:19;6.15;;;4.30;;
19593;SDS011;9944;48.240;16.478;2024-03-23T07:51:41;6.82;;;4.68;;
19593;SDS011;9944;48.240;16.478;2024-03-23T07:56:06;8.57;;;5.32;;
19593;SDS011;9944;48.240;16.478;2024-03-23T08:00:32;6.95;;;4.93;;
19593;SDS011;9944;48.240;16.478;2024-03-23T08:04:55;9.23;;;5.38;;
19593;SDS011;9944;48.240;16.478;2024-03-23T08:09:18;7.18;;;5.03;;
19593;SDS011;9944;48.240;16.478;2024-03-23T08:13:42;6.53;;;4.93;;
19593;SDS011;9944;48.240;16.478;2024-03-23T08:18:08;7.45;;;4.97;;
19593;SDS011;9944;48.240;16.478;2024-03-23T08:22:31;6.90;;;5.00;;
19593;SDS011;9944;48.240;16.478;2024-03-23T08:26:54;6.78;;;4.22;;
19593;SDS011;9944;48.240;16.478;2024-03-23T08:31:17;8.00;;;5.00;;
19593;SDS011;9944;48.240;16.478;2024-03-23T08:35:41;6.65;;;4.05;;
19593;SDS011;9944;48.240;16.478;2024-03-23T08:40:04;6.50;;;4.53;;
19593;SDS011;9944;48.240;16.478;2024-03-23T08:44:29;7.13;;;4.72;;
19593;SDS011;9944;48.240;16.478;2024-03-23T08:48:52;7.45;;;4.45;;
19593;SDS011;9944;48.240;16.478;2024-03-23T08:53:16;5.45;;;3.97;;
19593;SDS011;9944;48.240;16.478;2024-03-23T08:58:03;8.07;;;4.53;;
19593;SDS011;9944;48.240;16.478;2024-03-23T09:02:29;4.18;;;3.13;;
19593;SDS011;9944;48.240;16.478;2024-03-23T09:06:52;3.65;;;2.20;;
19593;SDS011;9944;48.240;16.478;2024-03-23T09:11:16;3.10;;;1.90;;
19593;SDS011;9944;48.240;16.478;2024-03-23T09:15:46;2.55;;;1.80;;
19593;SDS011;9944;48.240;16.478;2024-03-23T09:20:10;2.20;;;1.70;;
19593;SDS011;9944;48.240;16.478;2024-03-23T09:24:33;2.58;;;1.98;;
19593;SDS011;9944;48.240;16.478;2024-03-23T09:28:57;2.28;;;1.88;;
19593;SDS011;9944;48.240;16.478;2024-03-23T09:33:19;6.03;;;2.88;;
19593;SDS011;9944;48.240;16.478;2024-03-23T09:37:42;4.07;;;2.83;;
19593;SDS011;9944;48.240;16.478;2024-03-23T09:42:06;5.25;;;3.05;;
19593;SDS011;9944;48.240;16.478;2024-03-23T09:46:31;3.40;;;2.72;;
19593;SDS011;9944;48.240;16.478;2024-03-23T09:50:57;3.65;;;2.75;;
19593;SDS011;9944;48.240;16.478;2024-03-23T09:55:20;2.00;;;1.70;;
19593;SDS011;9944;48.240;16.478;2024-03-23T09:59:42;2.30;;;2.10;;
19593;SDS011;9944;48.240;16.478;2024-03-23T10:04:07;3.63;;;2.70;;
19593;SDS011;9944;48.240;16.478;2024-03-23T10:08:29;3.28;;;2.50;;
19593;SDS011;9944;48.240;16.478;2024-03-23T10:12:54;5.38;;;2.85;;
19593;SDS011;9944;48.240;16.478;2024-03-23T10:17:17;4.53;;;2.70;;
19593;SDS011;9944;48.240;16.478;2024-03-23T10:21:43;4.53;;;2.70;;
19593;SDS011;9944;48.240;16.478;2024-03-23T10:26:15;4.82;;;2.63;;
19593;SDS011;9944;48.240;16.478;2024-03-23T10:30:39;3.90;;;2.85;;
19593;SDS011;9944;48.240;16.478;2024-03-23T10:35:14;2.92;;;2.45;;
19593;SDS011;9944;48.240;16.478;2024-03-23T10:39:39;3.88;;;2.63;;
19593;SDS011;9944;48.240;16.478;2024-03-23T10:44:02;2.95;;;2.10;;
19593;SDS011;9944;48.240;16.478;2024-03-23T10:48:27;3.00;;;2.22;;
19593;SDS011;9944;48.240;16.478;2024-03-23T10:52:50;2.58;;;2.03;;
19593;SDS011;9944;48.240;16.478;2024-03-23T10:57:19;3.58;;;2.30;;
19593;SDS011;9944;48.240;16.478;2024-03-23T11:01:54;2.30;;;2.10;;
19593;SDS011;9944;48.240;16.478;2024-03-23T11:06:33;2.33;;;1.80;;
19593;SDS011;9944;48.240;16.478;2024-03-23T11:11:11;2.22;;;1.80;;
19593;SDS011;9944;48.240;16.478;2024-03-23T11:15:35;2.55;;;2.05;;
19593;SDS011;9944;48.240;16.478;2024-03-23T11:19:59;2.95;;;1.90;;
19593;SDS011;9944;48.240;16.478;2024-03-23T11:24:22;1.73;;;1.40;;
19593;SDS011;9944;48.240;16.478;2024-03-23T11:28:44;4.47;;;2.63;;
19593;SDS011;9944;48.240;16.478;2024-03-23T11:33:09;3.03;;;1.50;;
19593;SDS011;9944;48.240;16.478;2024-03-23T11:37:31;2.83;;;1.67;;
19593;SDS011;9944;48.240;16.478;2024-03-23T11:41:55;1.60;;;1.50;;
19593;SDS011;9944;48.240;16.478;2024-03-23T11:46:22;2.10;;;1.55;;
19593;SDS011;9944;48.240;16.478;2024-03-23T11:50:46;1.23;;;1.10;;
19593;SDS011;9944;48.240;16.478;2024-03-23T11:55:10;2.35;;;1.65;;
19593;SDS011;9944;48.240;16.478;2024-03-23T11:59:33;1.60;;;1.30;;
19593;SDS011;9944;48.240;16.478;2024-03-23T12:03:55;1.77;;;1.63;;
19593;SDS011;9944;48.240;16.478;2024-03-23T12:08:20;2.20;;;1.27;;
19593;SDS011;9944;48.240;16.478;2024-03-23T12:12:44;2.00;;;1.80;;
19593;SDS011;9944;48.240;16.478;2024-03-23T12:17:07;2.03;;;1.80;;
19593;SDS011;9944;48.240;16.478;2024-03-23T12:21:31;1.65;;;1.55;;
19593;SDS011;9944;48.240;16.478;2024-03-23T12:25:55;3.15;;;1.90;;
19593;SDS011;9944;48.240;16.478;2024-03-23T12:30:17;2.67;;;2.05;;
19593;SDS011;9944;48.240;16.478;2024-03-23T12:34:40;4.35;;;2.15;;
19593;SDS011;9944;48.240;16.478;2024-03-23T12:39:03;2.35;;;1.88;;
19593;SDS011;9944;48.240;16.478;2024-03-23T12:43:27;3.70;;;2.40;;
19593;SDS011;9944;48.240;16.478;2024-03-23T12:47:49;3.00;;;2.50;;
19593;SDS011;9944;48.240;16.478;2024-03-23T12:52:13;3.08;;;2.58;;
19593;SDS011;9944;48.240;16.478;2024-03-23T12:56:36;3.53;;;2.20;;
19593;SDS011;9944;48.240;16.478;2024-03-23T13:01:00;4.13;;;2.63;;
19593;SDS011;9944;48.240;16.478;2024-03-23T13:05:23;3.85;;;2.50;;
19593;SDS011;9944;48.240;16.478;2024-03-23T13:09:45;2.25;;;1.40;;
19593;SDS011;9944;48.240;16.478;2024-03-23T13:14:08;2.28;;;1.00;;
19593;SDS011;9944;48.240;16.478;2024-03-23T13:18:32;1.52;;;0.52;;
19593;SDS011;9944;48.240;16.478;2024-03-23T13:22:54;1.77;;;0.55;;
19593;SDS011;9944;48.240;16.478;2024-03-23T13:27:17;1.67;;;1.10;;
19593;SDS011;9944;48.240;16.478;2024-03-23T13:31:39;1.33;;;0.70;;
19593;SDS011;9944;48.240;16.478;2024-03-23T13:36:04;1.92;;;1.20;;
19593;SDS011;9944;48.240;16.478;2024-03-23T13:40:26;1.92;;;0.80;;
19593;SDS011;9944;48.240;16.478;2024-03-23T13:44:49;1.52;;;0.70;;
19593;SDS011;9944;48.240;16.478;2024-03-23T13:49:13;1.10;;;0.70;;
19593;SDS011;9944;48.240;16.478;2024-03-23T13:53:48;0.80;;;0.60;;
19593;SDS011;9944;48.240;16.478;2024-03-23T13:58:11;0.70;;;0.70;;
19593;SDS011;9944;48.240;16.478;2024-03-23T14:02:34;0.52;;;0.52;;
19593;SDS011;9944;48.240;16.478;2024-03-23T14:06:56;1.75;;;0.65;;
19593;SDS011;9944;48.240;16.478;2024-03-23T14:11:20;0.50;;;0.50;;
19593;SDS011;9944;48.240;16.478;2024-03-23T14:15:43;1.48;;;0.85;;
19593;SDS011;9944;48.240;16.478;2024-03-23T14:20:06;2.67;;;0.90;;
19593;SDS011;9944;48.240;16.478;2024-03-23T14:24:32;0.47;;;0.43;;
19593;SDS011;9944;48.240;16.478;2024-03-23T14:28:56;2.92;;;0.70;;
19593;SDS011;9944;48.240;16.478;2024-03-23T14:33:18;0.50;;;0.50;;
19593;SDS011;9944;48.240;16.478;2024-03-23T14:37:41;0.90;;;0.73;;
19593;SDS011;9944;48.240;16.478;2024-03-23T14:42:04;0.95;;;0.85;;
19593;SDS011;9944;48.240;16.478;2024-03-23T14:46:29;1.23;;;0.80;;
19593;SDS011;9944;48.240;16.478;2024-03-23T14:50:55;1.30;;;0.88;;
19593;SDS011;9944;48.240;16.478;2024-03-23T14:55:18;1.17;;;0.95;;
19593;SDS011;9944;48.240;16.478;2024-03-23T14:59:41;1.02;;;0.93;;
19593;SDS011;9944;48.240;16.478;2024-03-23T15:04:05;0.98;;;0.73;;
19593;SDS011;9944;48.240;16.478;2024-03-23T15:08:27;0.98;;;0.80;;
19593;SDS011;9944;48.240;16.478;2024-03-23T15:12:50;1.00;;;0.90;;
19593;SDS011;9944;48.240;16.478;2024-03-23T15:17:13;1.00;;;0.75;;
19593;SDS011;9944;48.240;16.478;2024-03-23T15:21:37;1.17;;;0.80;;
19593;SDS011;9944;48.240;16.478;2024-03-23T15:26:00;0.88;;;0.77;;
19593;SDS011;9944;48.240;16.478;2024-03-23T15:30:24;0.75;;;0.73;;
19593;SDS011;9944;48.240;16.478;2024-03-23T15:34:47;2.05;;;1.02;;
19593;SDS011;9944;48.240;16.478;2024-03-23T15:39:11;1.70;;;0.73;;
19593;SDS011;9944;48.240;16.478;2024-03-23T15:43:34;1.40;;;0.73;;
19593;SDS011;9944;48.240;16.478;2024-03-23T15:47:57;1.27;;;1.00;;
19593;SDS011;9944;48.240;16.478;2024-03-23T15:52:19;0.75;;;0.70;;
19593;SDS011;9944;48.240;16.478;2024-03-23T15:56:43;1.00;;;0.70;;
19593;SDS011;9944;48.240;16.478;2024-03-23T16:01:06;1.17;;;0.77;;
19593;SDS011;9944;48.240;16.478;2024-03-23T16:05:31;1.15;;;0.75;;
19593;SDS011;9944;48.240;16.478;2024-03-23T16:09:54;1.30;;;0.70;;
19593;SDS011;9944;48.240;16.478;2024-03-23T16:14:19;1.80;;;1.00;;
19593;SDS011;9944;48.240;16.478;2024-03-23T16:18:41;0.50;;;0.50;;
19593;SDS011;9944;48.240;16.478;2024-03-23T16:23:05;0.63;;;0.55;;
19593;SDS011;9944;48.240;16.478;2024-03-23T16:27:27;1.25;;;0.63;;
19593;SDS011;9944;48.240;16.478;2024-03-23T16:31:51;0.98;;;0.70;;
19593;SDS011;9944;48.240;16.478;2024-03-23T16:36:13;0.80;;;0.47;;
19593;SDS011;9944;48.240;16.478;2024-03-23T16:40:38;0.75;;;0.40;;
19593;SDS011;9944;48.240;16.478;2024-03-23T16:45:01;0.50;;;0.50;;
19593;SDS011;9944;48.240;16.478;2024-03-23T16:49:26;1.40;;;0.73;;
19593;SDS011;9944;48.240;16.478;2024-03-23T16:53:48;1.42;;;0.50;;
19593;SDS011;9944;48.240;16.478;2024-03-23T16:58:11;1.20;;;0.70;;
19593;SDS011;9944;48.240;16.478;2024-03-23T17:02:34;1.33;;;0.90;;
19593;SDS011;9944;48.240;16.478;2024-03-23T17:07:01;0.82;;;0.55;;
19593;SDS011;9944;48.240;16.478;2024-03-23T17:11:23;1.48;;;0.65;;
19593;SDS011;9944;48.240;16.478;2024-03-23T17:15:46;0.70;;;0.60;;
19593;SDS011;9944;48.240;16.478;2024-03-23T17:20:09;0.70;;;0.70;;
19593;SDS011;9944;48.240;16.478;2024-03-23T17:24:34;1.02;;;0.68;;
19593;SDS011;9944;48.240;16.478;2024-03-23T17:28:57;0.47;;;0.47;;
19593;SDS011;9944;48.240;16.478;2024-03-23T17:33:19;1.08;;;0.90;;
19593;SDS011;9944;48.240;16.478;2024-03-23T17:37:44;0.77;;;0.60;;
19593;SDS011;9944;48.240;16.478;2024-03-23T17:42:08;1.25;;;0.70;;
19593;SDS011;9944;48.240;16.478;2024-03-23T17:46:30;1.08;;;0.55;;
19593;SDS011;9944;48.240;16.478;2024-03-23T17:51:00;1.48;;;0.82;;
19593;SDS011;9944;48.240;16.478;2024-03-23T17:55:23;0.63;;;0.60;;
19593;SDS011;9944;48.240;16.478;2024-03-23T17:59:47;1.48;;;1.02;;
19593;SDS011;9944;48.240;16.478;2024-03-23T18:04:10;0.70;;;0.70;;
19593;SDS011;9944;48.240;16.478;2024-03-23T18:08:33;0.90;;;0.90;;
19593;SDS011;9944;48.240;16.478;2024-03-23T18:12:56;1.00;;;0.90;;
19593;SDS011;9944;48.240;16.478;2024-03-23T18:17:21;1.00;;;0.90;;
19593;SDS011;9944;48.240;16.478;2024-03-23T18:21:43;1.13;;;1.00;;
19593;SDS011;9944;48.240;16.478;2024-03-23T18:26:06;0.82;;;0.82;;
19593;SDS011;9944;48.240;16.478;2024-03-23T18:30:29;1.38;;;1.08;;
19593;SDS011;9944;48.240;16.478;2024-03-23T18:34:53;0.93;;;0.82;;
19593;SDS011;9944;48.240;16.478;2024-03-23T18:39:15;1.42;;;0.82;;
19593;SDS011;9944;48.240;16.478;2024-03-23T18:43:38;1.58;;;0.88;;
19593;SDS011;9944;48.240;16.478;2024-03-23T18:48:00;2.13;;;0.90;;
19593;SDS011;9944;48.240;16.478;2024-03-23T18:52:24;1.63;;;0.90;;
19593;SDS011;9944;48.240;16.478;2024-03-23T18:56:46;1.40;;;1.10;;
19593;SDS011;9944;48.240;16.478;2024-03-23T19:01:09;1.73;;;0.90;;
19593;SDS011;9944;48.240;16.478;2024-03-23T19:05:32;1.85;;;1.15;;
19593;SDS011;9944;48.240;16.478;2024-03-23T19:09:56;1.35;;;1.02;;
19593;SDS011;9944;48.240;16.478;2024-03-23T19:14:20;1.55;;;1.23;;
19593;SDS011;9944;48.240;16.478;2024-03-23T19:18:43;1.52;;;1.30;;
19593;SDS011;9944;48.240;16.478;2024-03-23T19:23:06;1.38;;;1.05;;
19593;SDS011;9944;48.240;16.478;2024-03-23T19:27:31;1.73;;;1.10;;
19593;SDS011;9944;48.240;16.478;2024-03-23T19:31:54;1.52;;;1.20;;
19593;SDS011;9944;48.240;16.478;2024-03-23T19:36:16;2.28;;;1.30;;
19593;SDS011;9944;48.240;16.478;2024-03-23T19:40:41;2.40;;;1.55;;
19593;SDS011;9944;48.240;16.478;2024-03-23T19:45:06;1.92;;;1.15;;
19593;SDS011;9944;48.240;16.478;2024-03-23T19:49:32;1.77;;;1.20;;
19593;SDS011;9944;48.240;16.478;2024-03-23T19:53:54;1.38;;;1.27;;
19593;SDS011;9944;48.240;16.478;2024-03-23T19:58:17;3.65;;;1.20;;
19593;SDS011;9944;48.240;16.478;2024-03-23T20:02:42;1.85;;;1.30;;
19593;SDS011;9944;48.240;16.478;2024-03-23T20:07:07;2.67;;;1.20;;
19593;SDS011;9944;48.240;16.478;2024-03-23T20:11:29;1.48;;;1.13;;
19593;SDS011;9944;48.240;16.478;2024-03-23T20:15:52;1.90;;;1.48;;
19593;SDS011;9944;48.240;16.478;2024-03-23T20:20:17;1.10;;;1.00;;
19593;SDS011;9944;48.240;16.478;2024-03-23T20:24:39;1.08;;;0.98;;
19593;SDS011;9944;48.240;16.478;2024-03-23T20:29:03;1.77;;;0.93;;
19593;SDS011;9944;48.240;16.478;2024-03-23T20:33:26;0.90;;;0.90;;
19593;SDS011;9944;48.240;16.478;2024-03-23T20:37:51;1.40;;;1.00;;
19593;SDS011;9944;48.240;16.478;2024-03-23T20:42:13;1.10;;;1.00;;
19593;SDS011;9944;48.240;16.478;2024-03-23T20:46:36;1.10;;;1.00;;
19593;SDS011;9944;48.240;16.478;2024-03-23T20:50:59;1.90;;;1.10;;
19593;SDS011;9944;48.240;16.478;2024-03-23T20:55:23;2.28;;;1.10;;
19593;SDS011;9944;48.240;16.478;2024-03-23T20:59:46;1.38;;;1.13;;
19593;SDS011;9944;48.240;16.478;2024-03-23T21:04:09;1.38;;;1.10;;
19593;SDS011;9944;48.240;16.478;2024-03-23T21:08:31;2.25;;;1.20;;
19593;SDS011;9944;48.240;16.478;2024-03-23T21:12:56;0.77;;;0.70;;
19593;SDS011;9944;48.240;16.478;2024-03-23T21:17:18;2.55;;;1.00;;
19593;SDS011;9944;48.240;16.478;2024-03-23T21:21:41;0.90;;;0.90;;
19593;SDS011;9944;48.240;16.478;2024-03-23T21:26:04;1.58;;;1.00;;
19593;SDS011;9944;48.240;16.478;2024-03-23T21:30:29;2.08;;;1.10;;
19593;SDS011;9944;48.240;16.478;2024-03-23T21:34:51;4.40;;;1.30;;
19593;SDS011;9944;48.240;16.478;2024-03-23T21:39:15;2.83;;;1.40;;
19593;SDS011;9944;48.240;16.478;2024-03-23T21:43:37;1.42;;;1.02;;
19593;SDS011;9944;48.240;16.478;2024-03-23T21:48:02;1.80;;;1.20;;
19593;SDS011;9944;48.240;16.478;2024-03-23T21:52:25;1.92;;;1.33;;
19593;SDS011;9944;48.240;16.478;2024-03-23T21:56:48;1.85;;;1.25;;
19593;SDS011;9944;48.240;16.478;2024-03-23T22:01:10;2.05;;;1.00;;
19593;SDS011;9944;48.240;16.478;2024-03-23T22:05:35;1.65;;;1.42;;
19593;SDS011;9944;48.240;16.478;2024-03-23T22:09:58;3.08;;;1.70;;
19593;SDS011;9944;48.240;16.478;2024-03-23T22:14:22;2.05;;;1.60;;
19593;SDS011;9944;48.240;16.478;2024-03-23T22:18:44;1.40;;;1.30;;
19593;SDS011;9944;48.240;16.478;2024-03-23T22:23:08;2.55;;;1.35;;
19593;SDS011;9944;48.240;16.478;2024-03-23T22:27:32;1.80;;;1.50;;
19593;SDS011;9944;48.240;16.478;2024-03-23T22:31:55;1.60;;;1.45;;
19593;SDS011;9944;48.240;16.478;2024-03-23T22:36:20;3.28;;;1.48;;
19593;SDS011;9944;48.240;16.478;2024-03-23T22:40:52;1.80;;;1.58;;
19593;SDS011;9944;48.240;16.478;2024-03-23T22:45:15;3.42;;;1.30;;
19593;SDS011;9944;48.240;16.478;2024-03-23T22:49:37;1.75;;;1.25;;
19593;SDS011;9944;48.240;16.478;2024-03-23T22:54:01;1.98;;;1.20;;
19593;SDS011;9944;48.240;16.478;2024-03-23T22:58:25;1.58;;;1.30;;
19593;SDS011;9944;48.240;16.478;2024-03-23T23:02:48;1.10;;;1.00;;
19593;SDS011;9944;48.240;16.478;2024-03-23T23:07:11;1.80;;;1.35;;
19593;SDS011;9944;48.240;16.478;2024-03-23T23:11:33;1.20;;;1.10;;
19593;SDS011;9944;48.240;16.478;2024-03-23T23:15:57;1.58;;;1.00;;
19593;SDS011;9944;48.240;16.478;2024-03-23T23:20:19;1.20;;;1.00;;
19593;SDS011;9944;48.240;16.478;2024-03-23T23:24:42;1.50;;;1.00;;
19593;SDS011;9944;48.240;16.478;2024-03-23T23:29:04;1.50;;;1.40;;
19593;SDS011;9944;48.240;16.478;2024-03-23T23:33:29;3.72;;;1.38;;
19593;SDS011;9944;48.240;16.478;2024-03-23T23:37:52;2.65;;;1.30;;
19593;SDS011;9944;48.240;16.478;2024-03-23T23:42:15;1.30;;;1.20;;
19593;SDS011;9944;48.240;16.478;2024-03-23T23:46:37;1.85;;;1.40;;
19593;SDS011;9944;48.240;16.478;2024-03-23T23:51:00;1.65;;;1.17;;
19593;SDS011;9944;48.240;16.478;2024-03-23T23:55:23;1.70;;;1.10;;
19593;SDS011;9944;48.240;16.478;2024-03-23T23:59:45;3.40;;;1.30;;
